sensor_id;sensor_type;location;lat;lon;timestamp;P1;durP1;ratioP1;P2;durP2;ratioP2
75894;SDS011;64573;50.328;15.014;2023-09-07T00:01:43;5.25;;;3.58;;
75894;SDS011;64573;50.328;15.014;2023-09-07T00:04:09;7.65;;;3.60;;
75894;SDS011;64573;50.328;15.014;2023-09-07T00:06:35;6.32;;;3.70;;
75894;SDS011;64573;50.328;15.014;2023-09-07T00:09:01;5.85;;;3.78;;
75894;SDS011;64573;50.328;15.014;2023-09-07T00:11:27;6.18;;;3.78;;
75894;SDS011;64573;50.328;15.014;2023-09-07T00:13:52;5.63;;;3.90;;
75894;SDS011;64573;50.328;15.014;2023-09-07T00:16:18;7.30;;;3.83;;
75894;SDS011;64573;50.328;15.014;2023-09-07T00:18:43;7.57;;;3.80;;
75894;SDS011;64573;50.328;15.014;2023-09-07T00:21:09;6.72;;;3.38;;
75894;SDS011;64573;50.328;15.014;2023-09-07T00:23:34;6.15;;;3.55;;
75894;SDS011;64573;50.328;15.014;2023-09-07T00:25:59;7.10;;;3.35;;
75894;SDS011;64573;50.328;15.014;2023-09-07T00:28:25;5.90;;;3.50;;
75894;SDS011;64573;50.328;15.014;2023-09-07T00:30:50;7.00;;;3.78;;
75894;SDS011;64573;50.328;15.014;2023-09-07T00:33:15;6.95;;;3.63;;
75894;SDS011;64573;50.328;15.014;2023-09-07T00:35:41;5.32;;;3.63;;
75894;SDS011;64573;50.328;15.014;2023-09-07T00:38:06;5.57;;;3.90;;
75894;SDS011;64573;50.328;15.014;2023-09-07T00:40:31;6.00;;;3.53;;
75894;SDS011;64573;50.328;15.014;2023-09-07T00:42:58;7.70;;;3.60;;
75894;SDS011;64573;50.328;15.014;2023-09-07T00:45:24;6.93;;;3.92;;
75894;SDS011;64573;50.328;15.014;2023-09-07T00:47:49;5.15;;;3.38;;
75894;SDS011;64573;50.328;15.014;2023-09-07T00:50:14;6.57;;;3.50;;
75894;SDS011;64573;50.328;15.014;2023-09-07T00:52:44;5.72;;;3.78;;
75894;SDS011;64573;50.328;15.014;2023-09-07T00:57:40;5.85;;;3.90;;
75894;SDS011;64573;50.328;15.014;2023-09-07T01:00:07;4.43;;;3.67;;
75894;SDS011;64573;50.328;15.014;2023-09-07T01:02:33;5.47;;;3.85;;
75894;SDS011;64573;50.328;15.014;2023-09-07T01:04:59;5.03;;;3.35;;
75894;SDS011;64573;50.328;15.014;2023-09-07T01:07:25;5.20;;;3.38;;
75894;SDS011;64573;50.328;15.014;2023-09-07T01:09:57;6.03;;;3.42;;
75894;SDS011;64573;50.328;15.014;2023-09-07T01:12:26;7.40;;;3.70;;
75894;SDS011;64573;50.328;15.014;2023-09-07T01:14:52;5.05;;;3.58;;
75894;SDS011;64573;50.328;15.014;2023-09-07T01:17:18;5.95;;;4.10;;
75894;SDS011;64573;50.328;15.014;2023-09-07T01:19:45;5.28;;;3.47;;
75894;SDS011;64573;50.328;15.014;2023-09-07T01:22:11;5.80;;;3.40;;
75894;SDS011;64573;50.328;15.014;2023-09-07T01:24:38;5.57;;;3.40;;
75894;SDS011;64573;50.328;15.014;2023-09-07T01:27:04;7.80;;;3.95;;
75894;SDS011;64573;50.328;15.014;2023-09-07T01:29:30;5.72;;;3.55;;
75894;SDS011;64573;50.328;15.014;2023-09-07T01:31:56;5.97;;;3.50;;
75894;SDS011;64573;50.328;15.014;2023-09-07T01:34:22;5.15;;;3.70;;
75894;SDS011;64573;50.328;15.014;2023-09-07T01:36:48;6.32;;;3.70;;
75894;SDS011;64573;50.328;15.014;2023-09-07T01:39:13;6.68;;;3.70;;
75894;SDS011;64573;50.328;15.014;2023-09-07T01:41:39;6.38;;;3.60;;
75894;SDS011;64573;50.328;15.014;2023-09-07T01:44:04;9.85;;;4.20;;
75894;SDS011;64573;50.328;15.014;2023-09-07T01:46:30;6.13;;;3.80;;
75894;SDS011;64573;50.328;15.014;2023-09-07T01:48:55;8.32;;;4.30;;
75894;SDS011;64573;50.328;15.014;2023-09-07T01:51:20;5.85;;;3.58;;
75894;SDS011;64573;50.328;15.014;2023-09-07T01:53:49;5.25;;;3.70;;
75894;SDS011;64573;50.328;15.014;2023-09-07T01:56:17;6.00;;;3.70;;
75894;SDS011;64573;50.328;15.014;2023-09-07T01:58:42;9.13;;;3.58;;
75894;SDS011;64573;50.328;15.014;2023-09-07T02:01:19;12.25;;;3.90;;
75894;SDS011;64573;50.328;15.014;2023-09-07T02:03:51;8.10;;;3.63;;
75894;SDS011;64573;50.328;15.014;2023-09-07T02:06:17;7.55;;;3.42;;
75894;SDS011;64573;50.328;15.014;2023-09-07T02:08:43;4.95;;;3.25;;
75894;SDS011;64573;50.328;15.014;2023-09-07T02:11:08;5.60;;;3.80;;
75894;SDS011;64573;50.328;15.014;2023-09-07T02:13:34;6.90;;;3.60;;
75894;SDS011;64573;50.328;15.014;2023-09-07T02:16:03;5.53;;;3.75;;
75894;SDS011;64573;50.328;15.014;2023-09-07T02:18:31;4.25;;;3.28;;
75894;SDS011;64573;50.328;15.014;2023-09-07T02:21:01;5.18;;;3.60;;
75894;SDS011;64573;50.328;15.014;2023-09-07T02:23:28;5.68;;;3.88;;
75894;SDS011;64573;50.328;15.014;2023-09-07T02:25:54;5.30;;;3.60;;
75894;SDS011;64573;50.328;15.014;2023-09-07T02:28:19;7.90;;;3.70;;
75894;SDS011;64573;50.328;15.014;2023-09-07T02:30:45;7.20;;;3.80;;
75894;SDS011;64573;50.328;15.014;2023-09-07T02:33:10;6.72;;;4.00;;
75894;SDS011;64573;50.328;15.014;2023-09-07T02:35:38;5.13;;;3.72;;
75894;SDS011;64573;50.328;15.014;2023-09-07T02:38:04;5.85;;;3.70;;
75894;SDS011;64573;50.328;15.014;2023-09-07T02:40:29;5.22;;;3.72;;
75894;SDS011;64573;50.328;15.014;2023-09-07T02:42:54;5.93;;;3.70;;
75894;SDS011;64573;50.328;15.014;2023-09-07T02:45:20;8.00;;;3.92;;
75894;SDS011;64573;50.328;15.014;2023-09-07T02:47:45;5.32;;;3.78;;
75894;SDS011;64573;50.328;15.014;2023-09-07T02:50:11;6.00;;;3.53;;
75894;SDS011;64573;50.328;15.014;2023-09-07T02:52:37;5.13;;;3.88;;
75894;SDS011;64573;50.328;15.014;2023-09-07T03:02:50;4.82;;;3.40;;
75894;SDS011;64573;50.328;15.014;2023-09-07T03:05:15;5.75;;;3.75;;
75894;SDS011;64573;50.328;15.014;2023-09-07T03:07:41;5.97;;;3.70;;
75894;SDS011;64573;50.328;15.014;2023-09-07T03:10:07;6.45;;;3.67;;
75894;SDS011;64573;50.328;15.014;2023-09-07T03:12:33;7.18;;;3.83;;
75894;SDS011;64573;50.328;15.014;2023-09-07T03:17:34;4.85;;;3.70;;
75894;SDS011;64573;50.328;15.014;2023-09-07T03:22:26;5.90;;;3.45;;
75894;SDS011;64573;50.328;15.014;2023-09-07T03:24:53;6.40;;;3.67;;
75894;SDS011;64573;50.328;15.014;2023-09-07T03:48:00;7.95;;;5.93;;
75894;SDS011;64573;50.328;15.014;2023-09-07T03:55:42;10.55;;;6.72;;
75894;SDS011;64573;50.328;15.014;2023-09-07T04:03:19;9.20;;;6.22;;
75894;SDS011;64573;50.328;15.014;2023-09-07T04:05:45;11.82;;;6.82;;
75894;SDS011;64573;50.328;15.014;2023-09-07T04:08:10;11.20;;;7.30;;
75894;SDS011;64573;50.328;15.014;2023-09-07T04:21:06;17.02;;;7.10;;
75894;SDS011;64573;50.328;15.014;2023-09-07T04:23:32;11.70;;;7.10;;
75894;SDS011;64573;50.328;15.014;2023-09-07T04:31:09;12.63;;;7.18;;
75894;SDS011;64573;50.328;15.014;2023-09-07T04:33:34;15.07;;;6.95;;
75894;SDS011;64573;50.328;15.014;2023-09-07T04:36:07;12.70;;;6.78;;
75894;SDS011;64573;50.328;15.014;2023-09-07T04:38:37;12.30;;;6.75;;
75894;SDS011;64573;50.328;15.014;2023-09-07T04:41:09;13.27;;;7.38;;
75894;SDS011;64573;50.328;15.014;2023-09-07T04:43:36;13.88;;;6.72;;
75894;SDS011;64573;50.328;15.014;2023-09-07T04:46:05;16.45;;;6.35;;
75894;SDS011;64573;50.328;15.014;2023-09-07T04:48:32;12.82;;;6.82;;
75894;SDS011;64573;50.328;15.014;2023-09-07T04:53:25;9.55;;;6.18;;
75894;SDS011;64573;50.328;15.014;2023-09-07T04:55:50;9.88;;;6.85;;
75894;SDS011;64573;50.328;15.014;2023-09-07T04:58:16;9.18;;;6.40;;
75894;SDS011;64573;50.328;15.014;2023-09-07T05:00:41;12.43;;;6.75;;
75894;SDS011;64573;50.328;15.014;2023-09-07T05:03:06;11.73;;;6.88;;
75894;SDS011;64573;50.328;15.014;2023-09-07T05:05:32;11.98;;;6.78;;
75894;SDS011;64573;50.328;15.014;2023-09-07T05:07:57;8.35;;;5.13;;
75894;SDS011;64573;50.328;15.014;2023-09-07T05:10:22;7.43;;;4.80;;
75894;SDS011;64573;50.328;15.014;2023-09-07T05:12:48;7.75;;;5.05;;
75894;SDS011;64573;50.328;15.014;2023-09-07T05:15:13;7.00;;;4.53;;
75894;SDS011;64573;50.328;15.014;2023-09-07T05:17:38;8.60;;;4.40;;
75894;SDS011;64573;50.328;15.014;2023-09-07T05:20:04;10.52;;;4.78;;
75894;SDS011;64573;50.328;15.014;2023-09-07T05:22:30;6.60;;;4.35;;
75894;SDS011;64573;50.328;15.014;2023-09-07T05:24:56;6.82;;;4.32;;
75894;SDS011;64573;50.328;15.014;2023-09-07T05:27:21;8.68;;;4.25;;
75894;SDS011;64573;50.328;15.014;2023-09-07T05:29:46;5.93;;;4.18;;
75894;SDS011;64573;50.328;15.014;2023-09-07T05:32:12;7.78;;;3.90;;
75894;SDS011;64573;50.328;15.014;2023-09-07T05:34:38;7.53;;;4.60;;
75894;SDS011;64573;50.328;15.014;2023-09-07T05:37:04;11.23;;;4.00;;
75894;SDS011;64573;50.328;15.014;2023-09-07T05:39:29;7.32;;;4.20;;
75894;SDS011;64573;50.328;15.014;2023-09-07T05:42:03;8.57;;;4.38;;
75894;SDS011;64573;50.328;15.014;2023-09-07T05:44:28;4.82;;;3.90;;
75894;SDS011;64573;50.328;15.014;2023-09-07T05:46:54;6.05;;;4.10;;
75894;SDS011;64573;50.328;15.014;2023-09-07T05:49:19;6.05;;;4.47;;
75894;SDS011;64573;50.328;15.014;2023-09-07T05:51:44;6.97;;;4.53;;
75894;SDS011;64573;50.328;15.014;2023-09-07T05:54:10;5.70;;;3.85;;
75894;SDS011;64573;50.328;15.014;2023-09-07T05:56:35;5.13;;;4.00;;
75894;SDS011;64573;50.328;15.014;2023-09-07T05:59:00;7.72;;;4.35;;
75894;SDS011;64573;50.328;15.014;2023-09-07T06:01:26;11.10;;;4.35;;
75894;SDS011;64573;50.328;15.014;2023-09-07T06:03:51;6.10;;;4.18;;
75894;SDS011;64573;50.328;15.014;2023-09-07T06:06:16;8.35;;;4.00;;
75894;SDS011;64573;50.328;15.014;2023-09-07T06:08:41;7.93;;;4.20;;
75894;SDS011;64573;50.328;15.014;2023-09-07T06:11:07;5.45;;;4.07;;
75894;SDS011;64573;50.328;15.014;2023-09-07T06:13:32;6.53;;;4.45;;
75894;SDS011;64573;50.328;15.014;2023-09-07T06:15:57;10.82;;;3.83;;
75894;SDS011;64573;50.328;15.014;2023-09-07T06:18:25;9.93;;;4.30;;
75894;SDS011;64573;50.328;15.014;2023-09-07T06:20:51;13.15;;;4.07;;
75894;SDS011;64573;50.328;15.014;2023-09-07T06:23:16;10.77;;;4.30;;
75894;SDS011;64573;50.328;15.014;2023-09-07T06:25:41;9.18;;;4.65;;
75894;SDS011;64573;50.328;15.014;2023-09-07T06:28:07;10.23;;;4.93;;
75894;SDS011;64573;50.328;15.014;2023-09-07T06:30:32;8.88;;;5.53;;
75894;SDS011;64573;50.328;15.014;2023-09-07T06:32:57;6.03;;;4.47;;
75894;SDS011;64573;50.328;15.014;2023-09-07T06:35:23;6.68;;;4.45;;
75894;SDS011;64573;50.328;15.014;2023-09-07T06:37:48;9.85;;;4.70;;
75894;SDS011;64573;50.328;15.014;2023-09-07T06:40:14;7.07;;;4.80;;
75894;SDS011;64573;50.328;15.014;2023-09-07T06:42:40;9.85;;;5.35;;
75894;SDS011;64573;50.328;15.014;2023-09-07T06:45:06;8.25;;;5.32;;
75894;SDS011;64573;50.328;15.014;2023-09-07T06:47:32;7.43;;;4.85;;
75894;SDS011;64573;50.328;15.014;2023-09-07T06:49:57;7.07;;;4.72;;
75894;SDS011;64573;50.328;15.014;2023-09-07T06:52:23;6.45;;;4.50;;
75894;SDS011;64573;50.328;15.014;2023-09-07T06:54:50;10.18;;;4.63;;
75894;SDS011;64573;50.328;15.014;2023-09-07T06:57:17;8.82;;;4.13;;
75894;SDS011;64573;50.328;15.014;2023-09-07T06:59:42;10.38;;;4.30;;
75894;SDS011;64573;50.328;15.014;2023-09-07T07:02:08;7.00;;;4.53;;
75894;SDS011;64573;50.328;15.014;2023-09-07T07:04:33;6.65;;;4.13;;
75894;SDS011;64573;50.328;15.014;2023-09-07T07:07:00;8.68;;;3.95;;
75894;SDS011;64573;50.328;15.014;2023-09-07T07:09:29;6.53;;;4.63;;
75894;SDS011;64573;50.328;15.014;2023-09-07T07:11:54;5.90;;;4.22;;
75894;SDS011;64573;50.328;15.014;2023-09-07T07:14:20;7.15;;;4.13;;
75894;SDS011;64573;50.328;15.014;2023-09-07T07:16:45;5.68;;;3.92;;
75894;SDS011;64573;50.328;15.014;2023-09-07T07:19:10;7.72;;;4.43;;
75894;SDS011;64573;50.328;15.014;2023-09-07T07:21:36;8.10;;;4.35;;
75894;SDS011;64573;50.328;15.014;2023-09-07T07:24:01;6.60;;;4.18;;
75894;SDS011;64573;50.328;15.014;2023-09-07T07:26:26;6.57;;;4.00;;
75894;SDS011;64573;50.328;15.014;2023-09-07T07:28:52;6.13;;;3.88;;
75894;SDS011;64573;50.328;15.014;2023-09-07T07:31:17;5.80;;;3.90;;
75894;SDS011;64573;50.328;15.014;2023-09-07T07:33:42;6.97;;;4.18;;
75894;SDS011;64573;50.328;15.014;2023-09-07T07:36:08;5.55;;;3.92;;
75894;SDS011;64573;50.328;15.014;2023-09-07T07:38:33;6.22;;;3.65;;
75894;SDS011;64573;50.328;15.014;2023-09-07T07:41:00;7.13;;;4.07;;
75894;SDS011;64573;50.328;15.014;2023-09-07T07:43:26;6.80;;;4.25;;
75894;SDS011;64573;50.328;15.014;2023-09-07T07:45:51;9.18;;;4.20;;
75894;SDS011;64573;50.328;15.014;2023-09-07T07:48:18;5.03;;;3.72;;
75894;SDS011;64573;50.328;15.014;2023-09-07T07:50:44;6.03;;;4.35;;
75894;SDS011;64573;50.328;15.014;2023-09-07T07:53:09;6.15;;;3.92;;
75894;SDS011;64573;50.328;15.014;2023-09-07T07:55:35;8.98;;;4.28;;
75894;SDS011;64573;50.328;15.014;2023-09-07T07:58:04;7.50;;;4.00;;
75894;SDS011;64573;50.328;15.014;2023-09-07T08:00:32;8.55;;;4.63;;
75894;SDS011;64573;50.328;15.014;2023-09-07T08:02:58;5.72;;;3.92;;
75894;SDS011;64573;50.328;15.014;2023-09-07T08:05:23;7.20;;;4.05;;
75894;SDS011;64573;50.328;15.014;2023-09-07T08:07:48;5.97;;;3.75;;
75894;SDS011;64573;50.328;15.014;2023-09-07T08:10:14;8.63;;;4.35;;
75894;SDS011;64573;50.328;15.014;2023-09-07T08:12:39;5.60;;;3.97;;
75894;SDS011;64573;50.328;15.014;2023-09-07T08:15:05;5.35;;;3.53;;
75894;SDS011;64573;50.328;15.014;2023-09-07T08:17:30;10.25;;;4.20;;
75894;SDS011;64573;50.328;15.014;2023-09-07T08:19:56;5.13;;;3.75;;
75894;SDS011;64573;50.328;15.014;2023-09-07T08:22:22;6.95;;;3.92;;
75894;SDS011;64573;50.328;15.014;2023-09-07T08:24:47;7.00;;;4.35;;
75894;SDS011;64573;50.328;15.014;2023-09-07T08:27:13;7.65;;;4.15;;
75894;SDS011;64573;50.328;15.014;2023-09-07T08:29:43;6.35;;;3.88;;
75894;SDS011;64573;50.328;15.014;2023-09-07T08:32:12;8.85;;;3.72;;
75894;SDS011;64573;50.328;15.014;2023-09-07T08:34:38;6.38;;;3.90;;
75894;SDS011;64573;50.328;15.014;2023-09-07T08:37:05;7.68;;;3.70;;
75894;SDS011;64573;50.328;15.014;2023-09-07T08:39:33;12.07;;;3.80;;
75894;SDS011;64573;50.328;15.014;2023-09-07T08:41:59;5.78;;;3.65;;
75894;SDS011;64573;50.328;15.014;2023-09-07T08:44:26;6.75;;;3.80;;
75894;SDS011;64573;50.328;15.014;2023-09-07T08:46:52;8.63;;;4.03;;
75894;SDS011;64573;50.328;15.014;2023-09-07T08:49:18;6.20;;;3.90;;
75894;SDS011;64573;50.328;15.014;2023-09-07T08:51:44;8.55;;;4.13;;
75894;SDS011;64573;50.328;15.014;2023-09-07T08:54:10;5.40;;;3.47;;
75894;SDS011;64573;50.328;15.014;2023-09-07T08:56:37;5.35;;;3.67;;
75894;SDS011;64573;50.328;15.014;2023-09-07T08:59:02;5.70;;;3.78;;
75894;SDS011;64573;50.328;15.014;2023-09-07T09:01:29;5.90;;;3.38;;
75894;SDS011;64573;50.328;15.014;2023-09-07T09:03:56;6.30;;;3.60;;
75894;SDS011;64573;50.328;15.014;2023-09-07T09:06:22;7.40;;;3.45;;
75894;SDS011;64573;50.328;15.014;2023-09-07T09:08:48;7.00;;;3.58;;
75894;SDS011;64573;50.328;15.014;2023-09-07T09:11:15;6.07;;;3.92;;
75894;SDS011;64573;50.328;15.014;2023-09-07T09:13:42;6.70;;;3.58;;
75894;SDS011;64573;50.328;15.014;2023-09-07T09:16:08;4.43;;;3.30;;
75894;SDS011;64573;50.328;15.014;2023-09-07T09:18:34;9.57;;;4.00;;
75894;SDS011;64573;50.328;15.014;2023-09-07T09:20:59;8.15;;;3.50;;
75894;SDS011;64573;50.328;15.014;2023-09-07T09:23:35;9.20;;;3.53;;
75894;SDS011;64573;50.328;15.014;2023-09-07T09:26:02;4.93;;;3.63;;
75894;SDS011;64573;50.328;15.014;2023-09-07T09:28:33;4.85;;;3.38;;
75894;SDS011;64573;50.328;15.014;2023-09-07T09:30:59;5.20;;;3.50;;
75894;SDS011;64573;50.328;15.014;2023-09-07T09:33:30;7.50;;;3.35;;
75894;SDS011;64573;50.328;15.014;2023-09-07T09:35:56;6.47;;;3.20;;
75894;SDS011;64573;50.328;15.014;2023-09-07T09:38:25;7.50;;;3.55;;
75894;SDS011;64573;50.328;15.014;2023-09-07T09:40:51;5.93;;;3.28;;
75894;SDS011;64573;50.328;15.014;2023-09-07T09:43:19;5.20;;;3.30;;
75894;SDS011;64573;50.328;15.014;2023-09-07T09:45:45;5.35;;;3.00;;
75894;SDS011;64573;50.328;15.014;2023-09-07T09:48:10;6.07;;;3.72;;
75894;SDS011;64573;50.328;15.014;2023-09-07T09:50:38;6.15;;;3.15;;
75894;SDS011;64573;50.328;15.014;2023-09-07T09:53:05;4.15;;;3.30;;
75894;SDS011;64573;50.328;15.014;2023-09-07T09:55:34;5.25;;;3.10;;
75894;SDS011;64573;50.328;15.014;2023-09-07T09:58:00;5.32;;;3.28;;
75894;SDS011;64573;50.328;15.014;2023-09-07T10:00:26;6.30;;;3.30;;
75894;SDS011;64573;50.328;15.014;2023-09-07T10:05:43;6.47;;;3.42;;
75894;SDS011;64573;50.328;15.014;2023-09-07T10:08:11;7.18;;;3.67;;
75894;SDS011;64573;50.328;15.014;2023-09-07T10:10:38;5.85;;;3.40;;
75894;SDS011;64573;50.328;15.014;2023-09-07T10:13:06;5.60;;;3.40;;
75894;SDS011;64573;50.328;15.014;2023-09-07T10:15:32;4.97;;;3.17;;
75894;SDS011;64573;50.328;15.014;2023-09-07T10:20:49;8.95;;;4.32;;
75894;SDS011;64573;50.328;15.014;2023-09-07T10:23:23;4.43;;;3.28;;
75894;SDS011;64573;50.328;15.014;2023-09-07T10:26:00;4.75;;;3.10;;
75894;SDS011;64573;50.328;15.014;2023-09-07T10:28:29;8.10;;;3.08;;
75894;SDS011;64573;50.328;15.014;2023-09-07T10:30:58;4.25;;;3.05;;
75894;SDS011;64573;50.328;15.014;2023-09-07T10:33:38;7.32;;;3.33;;
75894;SDS011;64573;50.328;15.014;2023-09-07T10:36:04;4.72;;;3.50;;
75894;SDS011;64573;50.328;15.014;2023-09-07T10:38:31;5.07;;;3.35;;
75894;SDS011;64573;50.328;15.014;2023-09-07T10:40:58;5.70;;;3.20;;
75894;SDS011;64573;50.328;15.014;2023-09-07T10:43:29;5.53;;;3.35;;
75894;SDS011;64573;50.328;15.014;2023-09-07T10:45:56;5.43;;;3.17;;
75894;SDS011;64573;50.328;15.014;2023-09-07T10:48:23;5.78;;;3.25;;
75894;SDS011;64573;50.328;15.014;2023-09-07T10:50:50;5.13;;;3.17;;
75894;SDS011;64573;50.328;15.014;2023-09-07T10:53:23;5.78;;;3.67;;
75894;SDS011;64573;50.328;15.014;2023-09-07T10:55:53;5.68;;;2.97;;
75894;SDS011;64573;50.328;15.014;2023-09-07T10:58:28;4.93;;;3.30;;
75894;SDS011;64573;50.328;15.014;2023-09-07T11:00:57;6.45;;;3.45;;
75894;SDS011;64573;50.328;15.014;2023-09-07T11:03:26;4.28;;;3.20;;
75894;SDS011;64573;50.328;15.014;2023-09-07T11:06:06;6.50;;;3.10;;
75894;SDS011;64573;50.328;15.014;2023-09-07T11:08:34;6.18;;;3.20;;
75894;SDS011;64573;50.328;15.014;2023-09-07T11:11:01;5.88;;;3.15;;
75894;SDS011;64573;50.328;15.014;2023-09-07T11:13:27;4.57;;;3.15;;
75894;SDS011;64573;50.328;15.014;2023-09-07T11:15:53;6.03;;;3.50;;
75894;SDS011;64573;50.328;15.014;2023-09-07T11:18:20;4.63;;;3.25;;
75894;SDS011;64573;50.328;15.014;2023-09-07T11:20:46;5.60;;;3.00;;
75894;SDS011;64573;50.328;15.014;2023-09-07T11:23:13;5.40;;;2.90;;
75894;SDS011;64573;50.328;15.014;2023-09-07T11:25:39;4.57;;;2.90;;
75894;SDS011;64573;50.328;15.014;2023-09-07T11:28:06;4.25;;;3.28;;
75894;SDS011;64573;50.328;15.014;2023-09-07T11:30:32;4.07;;;2.70;;
75894;SDS011;64573;50.328;15.014;2023-09-07T11:33:04;3.95;;;2.70;;
75894;SDS011;64573;50.328;15.014;2023-09-07T11:35:31;4.05;;;2.95;;
75894;SDS011;64573;50.328;15.014;2023-09-07T11:37:58;5.45;;;2.90;;
75894;SDS011;64573;50.328;15.014;2023-09-07T11:40:24;3.85;;;2.92;;
75894;SDS011;64573;50.328;15.014;2023-09-07T11:42:50;4.38;;;2.85;;
75894;SDS011;64573;50.328;15.014;2023-09-07T11:45:15;4.00;;;2.60;;
75894;SDS011;64573;50.328;15.014;2023-09-07T11:47:42;4.10;;;2.97;;
75894;SDS011;64573;50.328;15.014;2023-09-07T11:50:07;5.25;;;2.80;;
75894;SDS011;64573;50.328;15.014;2023-09-07T11:52:33;4.88;;;2.63;;
75894;SDS011;64573;50.328;15.014;2023-09-07T11:57:28;7.85;;;2.70;;
75894;SDS011;64573;50.328;15.014;2023-09-07T11:59:53;5.45;;;2.95;;
75894;SDS011;64573;50.328;15.014;2023-09-07T12:02:18;3.88;;;2.70;;
75894;SDS011;64573;50.328;15.014;2023-09-07T12:04:46;4.97;;;2.85;;
75894;SDS011;64573;50.328;15.014;2023-09-07T12:07:11;4.50;;;2.80;;
75894;SDS011;64573;50.328;15.014;2023-09-07T12:09:37;4.40;;;2.60;;
75894;SDS011;64573;50.328;15.014;2023-09-07T12:12:03;5.93;;;3.00;;
75894;SDS011;64573;50.328;15.014;2023-09-07T12:14:28;4.53;;;2.70;;
75894;SDS011;64573;50.328;15.014;2023-09-07T12:16:54;4.13;;;2.70;;
75894;SDS011;64573;50.328;15.014;2023-09-07T12:19:19;3.78;;;2.53;;
75894;SDS011;64573;50.328;15.014;2023-09-07T12:21:44;9.27;;;2.97;;
75894;SDS011;64573;50.328;15.014;2023-09-07T12:24:10;3.58;;;2.67;;
75894;SDS011;64573;50.328;15.014;2023-09-07T12:26:37;4.18;;;2.85;;
75894;SDS011;64573;50.328;15.014;2023-09-07T12:29:02;2.97;;;2.30;;
75894;SDS011;64573;50.328;15.014;2023-09-07T12:31:27;2.80;;;2.22;;
75894;SDS011;64573;50.328;15.014;2023-09-07T12:33:53;2.88;;;2.17;;
75894;SDS011;64573;50.328;15.014;2023-09-07T12:36:18;3.13;;;2.45;;
75894;SDS011;64573;50.328;15.014;2023-09-07T12:38:46;4.25;;;2.50;;
75894;SDS011;64573;50.328;15.014;2023-09-07T12:41:11;3.30;;;2.50;;
75894;SDS011;64573;50.328;15.014;2023-09-07T12:43:37;3.80;;;2.47;;
75894;SDS011;64573;50.328;15.014;2023-09-07T12:46:02;7.18;;;2.97;;
75894;SDS011;64573;50.328;15.014;2023-09-07T12:48:28;2.80;;;2.10;;
75894;SDS011;64573;50.328;15.014;2023-09-07T12:50:54;5.82;;;2.20;;
75894;SDS011;64573;50.328;15.014;2023-09-07T12:53:20;3.78;;;2.30;;
75894;SDS011;64573;50.328;15.014;2023-09-07T12:55:49;5.88;;;2.30;;
75894;SDS011;64573;50.328;15.014;2023-09-07T12:58:15;2.92;;;1.88;;
75894;SDS011;64573;50.328;15.014;2023-09-07T13:00:41;3.17;;;2.30;;
75894;SDS011;64573;50.328;15.014;2023-09-07T13:03:06;3.10;;;2.00;;
75894;SDS011;64573;50.328;15.014;2023-09-07T13:05:31;3.08;;;2.22;;
75894;SDS011;64573;50.328;15.014;2023-09-07T13:07:57;4.25;;;2.05;;
75894;SDS011;64573;50.328;15.014;2023-09-07T13:10:24;2.03;;;1.80;;
75894;SDS011;64573;50.328;15.014;2023-09-07T13:12:50;6.07;;;1.85;;
75894;SDS011;64573;50.328;15.014;2023-09-07T13:15:15;2.78;;;1.63;;
75894;SDS011;64573;50.328;15.014;2023-09-07T13:17:40;4.07;;;1.92;;
75894;SDS011;64573;50.328;15.014;2023-09-07T13:20:06;3.83;;;2.00;;
75894;SDS011;64573;50.328;15.014;2023-09-07T13:22:31;4.55;;;1.80;;
75894;SDS011;64573;50.328;15.014;2023-09-07T13:24:57;9.38;;;1.92;;
75894;SDS011;64573;50.328;15.014;2023-09-07T13:27:22;2.40;;;1.80;;
75894;SDS011;64573;50.328;15.014;2023-09-07T13:29:47;2.95;;;1.67;;
75894;SDS011;64573;50.328;15.014;2023-09-07T13:32:13;4.82;;;1.70;;
75894;SDS011;64573;50.328;15.014;2023-09-07T13:34:42;2.85;;;1.50;;
75894;SDS011;64573;50.328;15.014;2023-09-07T13:37:08;1.85;;;1.48;;
75894;SDS011;64573;50.328;15.014;2023-09-07T13:39:33;3.13;;;1.73;;
75894;SDS011;64573;50.328;15.014;2023-09-07T13:41:58;2.42;;;1.50;;
75894;SDS011;64573;50.328;15.014;2023-09-07T13:44:24;3.80;;;1.58;;
75894;SDS011;64573;50.328;15.014;2023-09-07T13:46:49;3.40;;;1.75;;
75894;SDS011;64573;50.328;15.014;2023-09-07T13:49:15;2.88;;;1.75;;
75894;SDS011;64573;50.328;15.014;2023-09-07T13:51:40;2.65;;;1.90;;
75894;SDS011;64573;50.328;15.014;2023-09-07T13:54:06;2.35;;;1.67;;
75894;SDS011;64573;50.328;15.014;2023-09-07T13:56:32;2.13;;;1.63;;
75894;SDS011;64573;50.328;15.014;2023-09-07T13:58:58;2.55;;;1.63;;
75894;SDS011;64573;50.328;15.014;2023-09-07T14:01:23;3.08;;;1.77;;
75894;SDS011;64573;50.328;15.014;2023-09-07T14:03:49;5.80;;;1.73;;
75894;SDS011;64573;50.328;15.014;2023-09-07T14:06:15;2.83;;;1.80;;
75894;SDS011;64573;50.328;15.014;2023-09-07T14:08:42;2.38;;;1.80;;
75894;SDS011;64573;50.328;15.014;2023-09-07T14:11:08;2.85;;;1.67;;
75894;SDS011;64573;50.328;15.014;2023-09-07T14:13:33;2.63;;;1.90;;
75894;SDS011;64573;50.328;15.014;2023-09-07T14:16:00;1.98;;;1.70;;
75894;SDS011;64573;50.328;15.014;2023-09-07T14:18:25;2.30;;;1.55;;
75894;SDS011;64573;50.328;15.014;2023-09-07T14:23:15;2.35;;;1.73;;
75894;SDS011;64573;50.328;15.014;2023-09-07T14:25:41;2.80;;;2.00;;
75894;SDS011;64573;50.328;15.014;2023-09-07T14:28:09;3.03;;;2.10;;
75894;SDS011;64573;50.328;15.014;2023-09-07T14:30:35;3.92;;;1.90;;
75894;SDS011;64573;50.328;15.014;2023-09-07T14:33:00;5.82;;;2.10;;
75894;SDS011;64573;50.328;15.014;2023-09-07T14:35:26;7.65;;;1.80;;
75894;SDS011;64573;50.328;15.014;2023-09-07T14:37:51;2.50;;;1.83;;
75894;SDS011;64573;50.328;15.014;2023-09-07T14:40:17;2.25;;;1.70;;
75894;SDS011;64573;50.328;15.014;2023-09-07T14:42:43;2.20;;;1.50;;
75894;SDS011;64573;50.328;15.014;2023-09-07T14:45:09;2.72;;;1.50;;
75894;SDS011;64573;50.328;15.014;2023-09-07T14:47:34;2.10;;;1.55;;
75894;SDS011;64573;50.328;15.014;2023-09-07T14:50:00;2.33;;;1.85;;
75894;SDS011;64573;50.328;15.014;2023-09-07T14:52:26;3.55;;;1.70;;
75894;SDS011;64573;50.328;15.014;2023-09-07T14:54:52;11.18;;;2.13;;
75894;SDS011;64573;50.328;15.014;2023-09-07T14:57:18;2.30;;;1.52;;
75894;SDS011;64573;50.328;15.014;2023-09-07T14:59:43;1.92;;;1.58;;
75894;SDS011;64573;50.328;15.014;2023-09-07T15:22:42;2.97;;;1.70;;
75894;SDS011;64573;50.328;15.014;2023-09-07T15:43:03;7.90;;;1.60;;
75894;SDS011;64573;50.328;15.014;2023-09-07T15:48:03;2.80;;;1.85;;
75894;SDS011;64573;50.328;15.014;2023-09-07T15:50:29;2.67;;;1.80;;
75894;SDS011;64573;50.328;15.014;2023-09-07T15:52:54;2.25;;;1.60;;
75894;SDS011;64573;50.328;15.014;2023-09-07T16:03:02;2.83;;;1.85;;
75894;SDS011;64573;50.328;15.014;2023-09-07T16:08:02;4.05;;;1.67;;
75894;SDS011;64573;50.328;15.014;2023-09-07T16:20:49;5.55;;;1.80;;
75894;SDS011;64573;50.328;15.014;2023-09-07T16:23:14;3.13;;;2.05;;
75894;SDS011;64573;50.328;15.014;2023-09-07T16:25:40;3.58;;;1.52;;
75894;SDS011;64573;50.328;15.014;2023-09-07T17:14:28;4.55;;;2.05;;
75894;SDS011;64573;50.328;15.014;2023-09-07T17:16:53;3.55;;;2.30;;
75894;SDS011;64573;50.328;15.014;2023-09-07T17:19:21;3.70;;;2.30;;
75894;SDS011;64573;50.328;15.014;2023-09-07T17:29:34;4.53;;;2.30;;
75894;SDS011;64573;50.328;15.014;2023-09-07T17:34:35;4.22;;;2.33;;
75894;SDS011;64573;50.328;15.014;2023-09-07T17:37:01;3.95;;;1.92;;
75894;SDS011;64573;50.328;15.014;2023-09-07T17:39:28;8.05;;;2.50;;
75894;SDS011;64573;50.328;15.014;2023-09-07T17:41:53;4.20;;;2.50;;